Time;durP1;ratioP1;P1;durP2;ratioP2;P2;SDS_P1;SDS_P2;PMS_P1;PMS_P2;Temp;Humidity;BMP_temperature;BMP_pressure;BME280_temperature;BME280_humidity;BME280_pressure;Samples;Min_cycle;Max_cycle;Signal;HPM_P1;HPM_P2
2022/01/12 00:01:56;;;;;;;8.33;7.07;;;;;;;;;;4954732;28;20208;-74
2022/01/12 00:04:21;;;;;;;9.53;7.03;;;;;;;;;;4954649;28;20173;-75
2022/01/12 00:06:46;;;;;;;8.00;6.27;;;;;;;;;;4953721;28;20188;-74
2022/01/12 00:09:12;;;;;;;8.80;6.43;;;;;;;;;;4954540;28;20181;-75
2022/01/12 00:11:37;;;;;;;8.53;6.70;;;;;;;;;;4952617;29;20232;-75
2022/01/12 00:14:03;;;;;;;9.20;7.17;;;;;;;;;;4953202;28;20212;-75
2022/01/12 00:16:28;;;;;;;13.07;7.17;;;;;;;;;;4956813;28;20199;-75
2022/01/12 00:18:53;;;;;;;9.63;7.27;;;;;;;;;;4950118;28;20464;-74
2022/01/12 00:21:19;;;;;;;8.73;6.83;;;;;;;;;;4954107;28;20218;-75
2022/01/12 00:23:44;;;;;;;10.73;7.73;;;;;;;;;;4953352;28;20225;-75
2022/01/12 00:26:25;;;;;;;9.30;6.97;;;;;;;;;;4952970;28;20181;-75
2022/01/12 00:34:19;;;;;;;12.33;6.90;;;;;;;;;;4952874;28;20227;-74
2022/01/12 00:36:44;;;;;;;8.53;5.83;;;;;;;;;;4951863;28;20189;-75
2022/01/12 00:39:09;;;;;;;9.00;7.20;;;;;;;;;;4952539;28;20194;-75
2022/01/12 00:41:38;;;;;;;9.23;6.53;;;;;;;;;;4951668;29;20296;-75
2022/01/12 00:44:07;;;;;;;9.77;6.90;;;;;;;;;;4953032;29;20185;-75
2022/01/12 00:46:32;;;;;;;12.97;8.40;;;;;;;;;;4952772;29;20196;-75
2022/01/12 00:48:58;;;;;;;8.87;6.43;;;;;;;;;;4954537;28;20177;-75
2022/01/12 00:51:26;;;;;;;10.50;6.43;;;;;;;;;;4954305;28;20248;-75
2022/01/12 00:53:52;;;;;;;10.73;8.07;;;;;;;;;;4956417;28;20303;-75
2022/01/12 00:56:17;;;;;;;9.63;7.23;;;;;;;;;;4952026;28;20293;-75
2022/01/12 00:58:42;;;;;;;9.00;6.47;;;;;;;;;;4953994;28;20218;-75
2022/01/12 01:01:07;;;;;;;10.07;6.67;;;;;;;;;;4951776;28;20242;-75
2022/01/12 01:03:34;;;;;;;9.70;6.53;;;;;;;;;;4950706;29;20182;-75
2022/01/12 01:05:59;;;;;;;7.87;6.43;;;;;;;;;;4952195;29;20181;-75
2022/01/12 01:08:24;;;;;;;9.40;6.40;;;;;;;;;;4953583;28;20403;-75
2022/01/12 01:10:51;;;;;;;11.67;7.07;;;;;;;;;;4953395;28;20178;-75
2022/01/12 01:13:24;;;;;;;10.93;7.10;;;;;;;;;;4953238;28;20179;-75
2022/01/12 01:26:28;;;;;;;9.37;7.10;;;;;;;;;;4953029;29;20191;-75
2022/01/12 01:28:53;;;;;;;8.77;6.67;;;;;;;;;;4952457;29;20269;-75
2022/01/12 01:31:20;;;;;;;11.17;7.33;;;;;;;;;;4952776;28;20183;-75
2022/01/12 01:33:45;;;;;;;9.83;6.67;;;;;;;;;;4950622;28;20201;-75
2022/01/12 01:36:10;;;;;;;8.97;6.47;;;;;;;;;;4959467;28;20188;-75
2022/01/12 01:38:35;;;;;;;12.97;6.20;;;;;;;;;;4953115;28;20241;-75
2022/01/12 01:41:01;;;;;;;10.47;7.17;;;;;;;;;;4951854;29;20234;-75
2022/01/12 01:54:03;;;;;;;11.73;7.83;;;;;;;;;;4950155;29;20221;-75
2022/01/12 01:56:28;;;;;;;7.93;6.77;;;;;;;;;;4951918;29;20220;-75
2022/01/12 01:58:54;;;;;;;12.40;7.10;;;;;;;;;;4951232;28;20186;-75
2022/01/12 02:01:20;;;;;;;8.20;6.87;;;;;;;;;;4950358;29;20250;-75
2022/01/12 02:03:45;;;;;;;11.03;7.47;;;;;;;;;;4948889;29;20217;-75
2022/01/12 02:06:11;;;;;;;11.27;6.97;;;;;;;;;;4949781;28;20190;-75
2022/01/12 02:08:36;;;;;;;10.73;6.27;;;;;;;;;;4953702;28;20205;-75
2022/01/12 02:11:02;;;;;;;8.43;6.67;;;;;;;;;;4953178;28;20201;-75
2022/01/12 02:13:29;;;;;;;7.53;6.53;;;;;;;;;;4948596;29;20187;-75
2022/01/12 02:15:55;;;;;;;9.33;6.63;;;;;;;;;;4951027;28;20167;-75
2022/01/12 02:39:50;;;;;;;8.50;7.13;;;;;;;;;;4951271;29;20190;-75
2022/01/12 02:40:06;;;;;;;8.57;6.53;;;;;;;;;;4952809;29;20202;-75
2022/01/12 02:42:32;;;;;;;7.00;5.77;;;;;;;;;;4953368;28;20207;-75
2022/01/12 02:55:46;;;;;;;10.33;6.70;;;;;;;;;;4951491;29;20198;-75
2022/01/12 02:58:12;;;;;;;7.97;6.53;;;;;;;;;;4951870;28;20191;-75
2022/01/12 03:03:24;;;;;;;11.00;6.00;;;;;;;;;;4928149;28;20194;-75
2022/01/12 03:06:01;;;;;;;10.07;6.30;;;;;;;;;;4951025;29;20186;-75
2022/01/12 03:08:27;;;;;;;8.33;5.97;;;;;;;;;;4949705;28;20201;-75
2022/01/12 03:10:52;;;;;;;8.10;6.57;;;;;;;;;;4957586;28;20303;-75
2022/01/12 03:13:18;;;;;;;7.07;6.17;;;;;;;;;;4949846;29;20229;-75
2022/01/12 03:15:43;;;;;;;8.47;6.33;;;;;;;;;;4950515;28;20186;-75
2022/01/12 03:18:09;;;;;;;7.83;6.63;;;;;;;;;;4950355;28;20274;-75
2022/01/12 03:20:34;;;;;;;6.30;5.33;;;;;;;;;;4951105;28;20216;-75
2022/01/12 03:23:00;;;;;;;7.07;5.47;;;;;;;;;;4949932;28;20227;-75
2022/01/12 03:25:25;;;;;;;9.77;6.87;;;;;;;;;;4950323;28;20189;-75
2022/01/12 03:27:56;;;;;;;7.43;6.10;;;;;;;;;;4949288;29;20180;-75
2022/01/12 03:30:21;;;;;;;7.27;6.27;;;;;;;;;;4949092;29;20179;-75
2022/01/12 03:32:50;;;;;;;8.20;5.93;;;;;;;;;;4949161;28;20196;-76
2022/01/12 03:35:25;;;;;;;7.53;6.07;;;;;;;;;;4948723;29;20214;-75
2022/01/12 03:40:34;;;;;;;7.00;5.87;;;;;;;;;;4945627;28;20190;-75
2022/01/12 03:43:00;;;;;;;8.30;6.20;;;;;;;;;;4950335;28;20194;-75
2022/01/12 03:45:25;;;;;;;8.40;6.50;;;;;;;;;;4954910;28;20242;-75
2022/01/12 03:47:50;;;;;;;8.93;6.07;;;;;;;;;;4950237;28;20181;-75
2022/01/12 03:50:15;;;;;;;8.13;6.13;;;;;;;;;;4953450;28;20171;-75
2022/01/12 03:52:40;;;;;;;8.83;5.93;;;;;;;;;;4952338;28;20197;-75
2022/01/12 03:55:06;;;;;;;8.13;6.30;;;;;;;;;;4953867;28;20175;-75
2022/01/12 03:57:31;;;;;;;9.07;6.40;;;;;;;;;;4951072;28;20562;-75
2022/01/12 03:59:56;;;;;;;7.63;6.47;;;;;;;;;;4954432;28;20234;-75
2022/01/12 04:02:22;;;;;;;10.30;6.10;;;;;;;;;;4953014;28;20213;-75
2022/01/12 04:05:09;;;;;;;8.90;6.03;;;;;;;;;;4948454;29;20206;-75
2022/01/12 04:10:19;;;;;;;8.70;5.63;;;;;;;;;;4954976;29;20193;-76
2022/01/12 04:12:44;;;;;;;7.80;6.40;;;;;;;;;;4949824;28;20178;-76
2022/01/12 04:15:10;;;;;;;7.40;6.07;;;;;;;;;;4951394;28;20182;-75
2022/01/12 04:17:35;;;;;;;9.73;6.57;;;;;;;;;;4954126;28;20186;-75
2022/01/12 04:20:02;;;;;;;7.93;5.93;;;;;;;;;;4950852;29;20186;-75
2022/01/12 04:25:11;;;;;;;8.83;5.83;;;;;;;;;;4952611;28;20194;-75
2022/01/12 04:27:37;;;;;;;8.03;6.60;;;;;;;;;;4952249;28;20174;-75
2022/01/12 04:30:03;;;;;;;9.53;6.90;;;;;;;;;;4953105;28;20189;-75
2022/01/12 04:32:29;;;;;;;8.13;6.40;;;;;;;;;;4952349;28;20178;-76
2022/01/12 04:34:54;;;;;;;9.37;7.30;;;;;;;;;;4952545;29;20198;-76
2022/01/12 04:37:19;;;;;;;8.17;5.60;;;;;;;;;;4952388;29;20290;-75
2022/01/12 04:39:44;;;;;;;8.27;6.53;;;;;;;;;;4951759;29;20224;-76
2022/01/12 04:42:09;;;;;;;9.87;6.90;;;;;;;;;;4951691;29;20265;-75
2022/01/12 04:44:39;;;;;;;10.17;6.63;;;;;;;;;;4950955;29;20193;-75
2022/01/12 04:47:08;;;;;;;9.47;7.70;;;;;;;;;;4954691;28;20186;-75
2022/01/12 04:49:47;;;;;;;7.37;6.17;;;;;;;;;;4951804;28;20205;-76
2022/01/12 04:52:13;;;;;;;10.37;7.30;;;;;;;;;;4953432;28;20200;-75
2022/01/12 04:54:39;;;;;;;9.67;7.13;;;;;;;;;;4969074;28;20226;-75
2022/01/12 04:57:04;;;;;;;8.17;6.70;;;;;;;;;;4950962;28;20231;-75
2022/01/12 04:59:31;;;;;;;10.07;6.60;;;;;;;;;;4949711;28;20217;-76
2022/01/12 05:02:10;;;;;;;9.87;7.53;;;;;;;;;;4949047;28;20255;-76
2022/01/12 05:07:29;;;;;;;9.83;7.27;;;;;;;;;;4948541;28;20174;-75
2022/01/12 05:12:48;;;;;;;8.50;6.80;;;;;;;;;;4953240;28;20435;-75
2022/01/12 05:12:54;;;;;;;7.67;6.53;;;;;;;;;;4953498;28;20213;-76
2022/01/12 05:15:27;;;;;;;10.47;7.43;;;;;;;;;;4951857;28;20174;-76
2022/01/12 05:17:53;;;;;;;8.53;6.93;;;;;;;;;;4952275;28;20186;-76
2022/01/12 05:20:18;;;;;;;10.40;9.00;;;;;;;;;;4953582;28;20171;-76
2022/01/12 05:22:44;;;;;;;10.13;7.77;;;;;;;;;;4954073;28;20264;-76
2022/01/12 05:25:09;;;;;;;10.83;7.20;;;;;;;;;;4951161;28;20185;-76
2022/01/12 05:27:34;;;;;;;12.10;8.87;;;;;;;;;;4952345;29;20198;-76
2022/01/12 05:29:59;;;;;;;10.40;7.33;;;;;;;;;;4948282;28;20181;-76
2022/01/12 05:32:26;;;;;;;10.80;8.13;;;;;;;;;;4955364;28;20240;-76
2022/01/12 05:34:57;;;;;;;10.73;8.30;;;;;;;;;;4951934;28;20205;-76
2022/01/12 05:37:22;;;;;;;9.87;7.27;;;;;;;;;;4951466;29;20187;-76
2022/01/12 05:39:48;;;;;;;10.67;8.07;;;;;;;;;;4951011;29;20195;-75
2022/01/12 05:42:13;;;;;;;11.90;8.50;;;;;;;;;;4952432;28;20205;-76
2022/01/12 05:44:40;;;;;;;10.87;9.20;;;;;;;;;;4950639;28;20193;-76
2022/01/12 05:47:05;;;;;;;10.43;8.60;;;;;;;;;;4949891;29;20177;-76
2022/01/12 05:49:34;;;;;;;10.47;8.00;;;;;;;;;;4947771;29;20188;-75
2022/01/12 05:51:59;;;;;;;8.93;6.77;;;;;;;;;;4952779;28;20304;-75
2022/01/12 05:54:25;;;;;;;14.00;9.13;;;;;;;;;;4950598;29;20268;-76
2022/01/12 05:56:51;;;;;;;11.47;9.67;;;;;;;;;;4948984;28;20185;-75
2022/01/12 05:59:17;;;;;;;11.83;9.33;;;;;;;;;;4952775;28;20207;-76
2022/01/12 06:01:42;;;;;;;9.40;7.73;;;;;;;;;;4950434;29;20203;-76
2022/01/12 06:04:07;;;;;;;10.03;7.77;;;;;;;;;;4950958;28;20241;-74
2022/01/12 06:06:32;;;;;;;10.57;7.97;;;;;;;;;;4945965;28;20229;-80
2022/01/12 06:08:57;;;;;;;11.97;8.60;;;;;;;;;;4952034;28;20236;-80
2022/01/12 06:11:23;;;;;;;12.23;8.80;;;;;;;;;;4951378;29;20183;-80
2022/01/12 06:13:48;;;;;;;10.70;8.37;;;;;;;;;;4950848;29;20182;-80
2022/01/12 06:16:13;;;;;;;12.37;10.23;;;;;;;;;;4951058;28;20177;-80
2022/01/12 06:18:38;;;;;;;12.20;8.97;;;;;;;;;;4951949;28;20244;-80
2022/01/12 06:21:04;;;;;;;10.13;7.80;;;;;;;;;;4951425;29;20185;-80
2022/01/12 06:23:29;;;;;;;10.27;7.60;;;;;;;;;;4953392;28;20241;-80
2022/01/12 06:25:54;;;;;;;10.80;7.97;;;;;;;;;;4959955;28;20207;-80
2022/01/12 06:31:17;;;;;;;13.90;10.00;;;;;;;;;;4950863;29;20586;-80
2022/01/12 06:33:42;;;;;;;14.20;11.90;;;;;;;;;;4946950;28;20215;-79
2022/01/12 06:36:07;;;;;;;15.27;11.50;;;;;;;;;;4955029;28;20191;-80
2022/01/12 06:38:33;;;;;;;12.57;10.37;;;;;;;;;;4950931;29;20200;-80
2022/01/12 06:40:58;;;;;;;14.50;11.37;;;;;;;;;;4951249;29;20185;-80
2022/01/12 06:43:23;;;;;;;10.60;7.23;;;;;;;;;;4950780;28;20186;-80
2022/01/12 06:45:50;;;;;;;11.63;8.63;;;;;;;;;;4935293;29;20275;-80
2022/01/12 06:48:15;;;;;;;10.10;8.50;;;;;;;;;;4950912;28;20272;-80
2022/01/12 06:50:40;;;;;;;11.60;8.97;;;;;;;;;;4949438;28;20174;-80
2022/01/12 06:53:05;;;;;;;12.03;9.77;;;;;;;;;;4949579;28;20192;-80
2022/01/12 06:55:30;;;;;;;13.40;10.80;;;;;;;;;;4946812;28;20192;-80
2022/01/12 06:57:56;;;;;;;14.03;10.93;;;;;;;;;;4947166;28;20178;-80
2022/01/12 07:00:21;;;;;;;15.23;11.90;;;;;;;;;;4947421;28;20241;-80
2022/01/12 07:02:47;;;;;;;13.30;10.20;;;;;;;;;;4949016;28;20213;-80
2022/01/12 07:05:12;;;;;;;10.50;8.30;;;;;;;;;;4954080;28;20184;-80
2022/01/12 07:07:38;;;;;;;9.67;8.00;;;;;;;;;;4934228;29;20193;-80
2022/01/12 07:10:03;;;;;;;9.83;8.73;;;;;;;;;;4950516;28;20181;-80
2022/01/12 07:12:28;;;;;;;10.50;8.97;;;;;;;;;;4949712;28;20197;-80
2022/01/12 07:14:53;;;;;;;12.40;8.93;;;;;;;;;;4950946;28;20194;-80
2022/01/12 07:17:19;;;;;;;9.90;7.73;;;;;;;;;;4951020;28;20212;-80
2022/01/12 07:19:44;;;;;;;10.37;8.23;;;;;;;;;;4954618;29;20189;-80
2022/01/12 07:22:09;;;;;;;10.00;8.03;;;;;;;;;;4952690;28;20230;-80
2022/01/12 07:24:34;;;;;;;12.90;9.53;;;;;;;;;;4953305;28;20197;-80
2022/01/12 07:26:59;;;;;;;9.73;8.47;;;;;;;;;;4953579;29;20205;-80
2022/01/12 07:29:25;;;;;;;11.43;9.20;;;;;;;;;;4955541;28;20269;-81
2022/01/12 07:31:50;;;;;;;10.30;8.13;;;;;;;;;;4953271;28;20229;-81
2022/01/12 07:34:15;;;;;;;12.53;9.10;;;;;;;;;;4952693;28;20313;-77
2022/01/12 07:36:41;;;;;;;11.40;8.97;;;;;;;;;;4955499;28;20200;-79
2022/01/12 07:39:07;;;;;;;13.20;9.60;;;;;;;;;;4953126;28;20185;-79
2022/01/12 07:41:32;;;;;;;12.67;9.53;;;;;;;;;;4959363;28;20204;-79
2022/01/12 07:43:57;;;;;;;11.13;8.25;;;;;;;;;;4954180;28;20185;-79
2022/01/12 07:46:22;;;;;;;10.87;8.33;;;;;;;;;;4954477;29;20186;-79
2022/01/12 07:48:47;;;;;;;9.63;6.93;;;;;;;;;;4954650;29;20245;-79
2022/01/12 07:51:14;;;;;;;11.83;8.57;;;;;;;;;;4954114;29;20182;-79
2022/01/12 07:53:39;;;;;;;7.87;6.47;;;;;;;;;;4954761;29;20185;-80
2022/01/12 07:56:04;;;;;;;13.27;9.33;;;;;;;;;;4954378;29;20192;-79
2022/01/12 07:58:29;;;;;;;12.27;8.17;;;;;;;;;;4952364;28;20272;-79
2022/01/12 08:00:54;;;;;;;9.73;7.70;;;;;;;;;;4949863;29;20186;-79
2022/01/12 08:03:20;;;;;;;9.13;7.80;;;;;;;;;;4953651;29;20201;-80
2022/01/12 08:05:46;;;;;;;10.63;7.50;;;;;;;;;;4954308;29;20177;-80
2022/01/12 08:08:12;;;;;;;10.30;7.70;;;;;;;;;;4954930;29;20181;-80
2022/01/12 08:10:37;;;;;;;12.23;8.37;;;;;;;;;;4954309;29;20213;-79
2022/01/12 08:13:02;;;;;;;16.63;9.77;;;;;;;;;;4953464;28;20216;-80
2022/01/12 08:15:29;;;;;;;16.23;11.70;;;;;;;;;;4954126;28;20189;-80
2022/01/12 08:17:54;;;;;;;9.77;8.63;;;;;;;;;;4954884;28;20277;-80
2022/01/12 08:20:25;;;;;;;11.43;8.40;;;;;;;;;;4953884;28;20245;-79
2022/01/12 08:22:50;;;;;;;12.37;9.00;;;;;;;;;;4954381;28;20233;-79
2022/01/12 08:25:15;;;;;;;11.23;8.37;;;;;;;;;;4960754;28;20173;-79
2022/01/12 08:27:40;;;;;;;11.93;9.20;;;;;;;;;;4952978;28;21163;-80
2022/01/12 08:30:15;;;;;;;11.67;8.40;;;;;;;;;;4952995;29;20297;-80
2022/01/12 08:32:40;;;;;;;13.13;8.93;;;;;;;;;;4951949;28;20265;-80
2022/01/12 08:35:05;;;;;;;12.13;8.80;;;;;;;;;;4949718;29;20262;-80
2022/01/12 08:37:30;;;;;;;13.77;8.77;;;;;;;;;;4951876;29;20228;-80
2022/01/12 08:39:55;;;;;;;12.23;9.13;;;;;;;;;;4954069;28;20209;-80
2022/01/12 08:42:21;;;;;;;11.43;8.33;;;;;;;;;;4950756;29;20452;-80
2022/01/12 08:44:46;;;;;;;9.97;7.73;;;;;;;;;;4953772;29;20250;-80
2022/01/12 08:47:11;;;;;;;11.63;8.87;;;;;;;;;;4953186;29;20178;-80
2022/01/12 08:49:36;;;;;;;13.03;9.87;;;;;;;;;;4953792;29;20245;-80
2022/01/12 08:52:02;;;;;;;11.93;8.50;;;;;;;;;;4950765;29;20224;-80
2022/01/12 08:54:27;;;;;;;13.77;10.10;;;;;;;;;;4959218;28;20176;-80
2022/01/12 08:56:53;;;;;;;13.77;10.60;;;;;;;;;;4954559;28;20186;-81
2022/01/12 08:59:19;;;;;;;16.03;10.17;;;;;;;;;;4953791;28;20269;-80
2022/01/12 09:01:44;;;;;;;13.17;9.53;;;;;;;;;;4953013;29;20209;-81
2022/01/12 09:04:09;;;;;;;12.17;9.33;;;;;;;;;;4953682;29;20205;-80
2022/01/12 09:06:35;;;;;;;14.63;11.33;;;;;;;;;;4947766;29;20313;-80
2022/01/12 09:09:00;;;;;;;12.53;9.33;;;;;;;;;;4952751;29;20181;-80
2022/01/12 09:11:25;;;;;;;12.67;9.70;;;;;;;;;;4953043;29;20269;-81
2022/01/12 09:13:50;;;;;;;12.33;9.40;;;;;;;;;;4947754;29;20180;-80
2022/01/12 09:16:16;;;;;;;13.27;9.67;;;;;;;;;;4949516;28;20188;-81
2022/01/12 09:18:43;;;;;;;11.33;9.27;;;;;;;;;;4957694;28;20178;-81
2022/01/12 09:21:08;;;;;;;11.87;8.80;;;;;;;;;;4943889;29;20197;-80
2022/01/12 09:23:34;;;;;;;12.53;8.73;;;;;;;;;;4953571;28;20240;-81
2022/01/12 09:25:59;;;;;;;12.20;8.33;;;;;;;;;;4952892;28;20273;-80
2022/01/12 09:28:24;;;;;;;12.13;9.10;;;;;;;;;;4951609;29;20276;-81
2022/01/12 09:30:51;;;;;;;13.33;8.40;;;;;;;;;;4950296;28;20204;-81
2022/01/12 09:33:17;;;;;;;12.27;10.33;;;;;;;;;;4952487;28;20205;-81
2022/01/12 09:35:43;;;;;;;12.63;9.10;;;;;;;;;;4951182;28;20181;-81
2022/01/12 09:38:09;;;;;;;11.23;9.10;;;;;;;;;;4949936;28;20596;-81
2022/01/12 09:40:34;;;;;;;13.07;9.47;;;;;;;;;;4949743;28;20181;-81
2022/01/12 09:43:03;;;;;;;12.40;10.20;;;;;;;;;;4947129;29;20205;-81
2022/01/12 09:45:28;;;;;;;11.47;9.20;;;;;;;;;;4948985;28;20179;-81
2022/01/12 09:47:53;;;;;;;15.90;10.30;;;;;;;;;;4952713;28;20237;-81
2022/01/12 09:50:20;;;;;;;12.03;8.77;;;;;;;;;;4951069;28;20207;-81
2022/01/12 09:52:45;;;;;;;11.93;8.83;;;;;;;;;;4945179;28;20244;-81
2022/01/12 09:55:10;;;;;;;18.90;12.77;;;;;;;;;;4946144;28;20185;-81
2022/01/12 09:57:36;;;;;;;14.13;9.43;;;;;;;;;;4950124;29;20273;-81
2022/01/12 10:00:02;;;;;;;13.43;9.43;;;;;;;;;;4951374;29;20174;-81
2022/01/12 10:02:28;;;;;;;10.57;8.60;;;;;;;;;;4952091;29;20210;-81
2022/01/12 10:05:04;;;;;;;11.77;9.13;;;;;;;;;;4950281;29;20232;-82
2022/01/12 10:07:29;;;;;;;9.93;8.07;;;;;;;;;;4951056;29;20178;-82
2022/01/12 10:09:55;;;;;;;12.37;9.13;;;;;;;;;;4953575;28;20189;-81
2022/01/12 10:12:25;;;;;;;9.63;7.83;;;;;;;;;;4951740;29;20181;-82
2022/01/12 10:14:52;;;;;;;12.83;9.73;;;;;;;;;;4952277;29;20188;-81
2022/01/12 10:17:18;;;;;;;13.23;9.80;;;;;;;;;;4953728;28;20229;-81
2022/01/12 10:19:44;;;;;;;11.47;7.67;;;;;;;;;;4952669;29;20249;-82
2022/01/12 10:22:10;;;;;;;13.40;9.03;;;;;;;;;;4949433;28;20315;-82
2022/01/12 10:24:39;;;;;;;11.63;8.40;;;;;;;;;;4955314;28;20212;-82
2022/01/12 10:27:12;;;;;;;11.90;8.13;;;;;;;;;;4951765;29;20248;-82
2022/01/12 10:29:37;;;;;;;10.83;8.10;;;;;;;;;;4950628;29;20222;-82
2022/01/12 10:32:04;;;;;;;11.37;8.67;;;;;;;;;;4950952;29;20178;-82
2022/01/12 10:34:35;;;;;;;11.30;8.20;;;;;;;;;;4950838;28;20202;-83
2022/01/12 10:37:04;;;;;;;10.20;7.97;;;;;;;;;;4965845;28;20249;-82
2022/01/12 10:39:29;;;;;;;11.50;7.37;;;;;;;;;;4951170;29;20182;-82
2022/01/12 10:41:57;;;;;;;8.93;7.63;;;;;;;;;;4951568;29;20204;-81
2022/01/12 10:44:23;;;;;;;8.60;6.93;;;;;;;;;;4951954;29;20209;-83
2022/01/12 10:46:48;;;;;;;7.83;7.00;;;;;;;;;;4938998;29;20183;-83
2022/01/12 10:49:17;;;;;;;10.17;8.07;;;;;;;;;;4951213;28;20232;-82
2022/01/12 10:51:43;;;;;;;10.13;7.47;;;;;;;;;;4947810;28;20186;-82
2022/01/12 10:54:08;;;;;;;8.33;6.23;;;;;;;;;;4957960;28;20186;-82
2022/01/12 10:56:34;;;;;;;8.17;6.60;;;;;;;;;;4954708;28;20228;-82
2022/01/12 10:58:59;;;;;;;8.27;7.07;;;;;;;;;;4951279;29;20192;-83
2022/01/12 11:01:25;;;;;;;9.33;7.53;;;;;;;;;;4950707;28;20195;-83
2022/01/12 11:03:51;;;;;;;8.30;6.37;;;;;;;;;;4959130;28;20255;-83
2022/01/12 11:06:16;;;;;;;9.40;6.53;;;;;;;;;;4949465;29;20269;-83
2022/01/12 11:08:42;;;;;;;9.73;7.07;;;;;;;;;;4951321;29;20174;-81
2022/01/12 11:11:08;;;;;;;9.17;7.00;;;;;;;;;;4952377;28;20178;-82
2022/01/12 11:13:35;;;;;;;11.67;7.53;;;;;;;;;;4951845;29;20236;-83
2022/01/12 11:16:00;;;;;;;8.37;6.37;;;;;;;;;;4951343;28;20219;-82
2022/01/12 11:18:28;;;;;;;12.10;7.27;;;;;;;;;;4950394;28;20214;-82
2022/01/12 11:20:55;;;;;;;8.43;6.60;;;;;;;;;;4949193;29;20175;-83
2022/01/12 11:23:31;;;;;;;11.80;8.67;;;;;;;;;;4950640;28;20270;-83
2022/01/12 11:25:57;;;;;;;9.50;6.53;;;;;;;;;;4950428;29;20228;-83
2022/01/12 11:28:23;;;;;;;11.90;8.90;;;;;;;;;;4951418;28;20182;-82
2022/01/12 11:30:50;;;;;;;14.87;10.67;;;;;;;;;;4951100;29;20269;-83
2022/01/12 11:33:16;;;;;;;11.60;7.70;;;;;;;;;;4951476;28;20205;-83
2022/01/12 11:35:43;;;;;;;10.63;6.93;;;;;;;;;;4951022;29;20182;-83
2022/01/12 11:38:19;;;;;;;8.77;7.07;;;;;;;;;;4947797;29;20193;-83
2022/01/12 11:40:44;;;;;;;10.00;7.87;;;;;;;;;;4946054;29;20189;-84
2022/01/12 11:43:20;;;;;;;10.33;8.60;;;;;;;;;;4951033;29;20511;-83
2022/01/12 11:45:46;;;;;;;10.63;7.50;;;;;;;;;;4950865;29;20281;-83
2022/01/12 11:48:11;;;;;;;10.10;7.97;;;;;;;;;;4950938;29;20273;-83
2022/01/12 11:50:37;;;;;;;9.60;8.47;;;;;;;;;;4950888;29;20180;-82
2022/01/12 11:53:02;;;;;;;12.00;8.57;;;;;;;;;;4951219;29;20189;-83
2022/01/12 11:55:32;;;;;;;10.63;8.50;;;;;;;;;;4950591;28;20294;-83
2022/01/12 11:58:03;;;;;;;13.20;8.53;;;;;;;;;;4950764;29;20183;-83
2022/01/12 12:00:30;;;;;;;12.33;8.30;;;;;;;;;;4951102;29;20178;-82
2022/01/12 12:02:56;;;;;;;10.60;8.37;;;;;;;;;;4950711;28;20230;-83
2022/01/12 12:05:23;;;;;;;11.20;9.67;;;;;;;;;;4954017;29;20233;-82
2022/01/12 12:07:51;;;;;;;10.60;8.80;;;;;;;;;;4953914;29;20269;-83
2022/01/12 12:10:18;;;;;;;10.23;8.37;;;;;;;;;;4954270;29;20180;-82
2022/01/12 12:12:43;;;;;;;11.97;8.80;;;;;;;;;;4950544;29;20175;-82
2022/01/12 12:15:09;;;;;;;10.73;8.97;;;;;;;;;;4954296;28;20224;-82
2022/01/12 12:17:35;;;;;;;13.13;8.93;;;;;;;;;;4961795;28;20186;-83
2022/01/12 12:20:01;;;;;;;13.27;8.87;;;;;;;;;;4945535;29;20182;-82
2022/01/12 12:22:30;;;;;;;11.50;8.40;;;;;;;;;;4951644;28;20240;-82
2022/01/12 12:25:15;;;;;;;8.87;7.23;;;;;;;;;;4952935;28;20244;-82
2022/01/12 12:27:45;;;;;;;10.97;7.60;;;;;;;;;;4950907;29;20185;-83
2022/01/12 12:30:15;;;;;;;11.17;8.67;;;;;;;;;;4953660;29;20185;-83
2022/01/12 12:32:44;;;;;;;12.60;8.87;;;;;;;;;;4950961;28;20217;-82
2022/01/12 12:35:13;;;;;;;14.20;11.03;;;;;;;;;;4953426;28;20190;-82
2022/01/12 12:37:40;;;;;;;12.23;9.90;;;;;;;;;;4953355;29;20275;-83
2022/01/12 12:40:16;;;;;;;15.80;9.47;;;;;;;;;;4954093;29;20232;-81
2022/01/12 12:42:42;;;;;;;8.97;7.60;;;;;;;;;;4945085;29;20209;-82
2022/01/12 12:45:08;;;;;;;11.67;9.03;;;;;;;;;;4954134;29;20173;-82
2022/01/12 12:47:33;;;;;;;10.50;8.20;;;;;;;;;;4953116;29;20216;-83
2022/01/12 12:50:01;;;;;;;13.17;8.00;;;;;;;;;;4953447;28;20210;-82
2022/01/12 12:52:30;;;;;;;10.23;8.43;;;;;;;;;;4951806;29;20173;-82
2022/01/12 12:54:57;;;;;;;11.47;8.53;;;;;;;;;;4953784;29;20209;-83
2022/01/12 12:57:23;;;;;;;8.30;7.37;;;;;;;;;;4951574;29;20236;-84
2022/01/12 12:59:49;;;;;;;10.63;8.23;;;;;;;;;;4954160;29;20178;-83
2022/01/12 13:02:14;;;;;;;11.03;8.73;;;;;;;;;;4947713;28;20209;-83
2022/01/12 13:04:40;;;;;;;10.40;8.40;;;;;;;;;;4950922;29;20192;-83
2022/01/12 13:07:31;;;;;;;9.57;8.20;;;;;;;;;;4952785;28;20224;-83
2022/01/12 13:10:07;;;;;;;12.93;8.63;;;;;;;;;;4952017;29;20268;-83
2022/01/12 13:12:36;;;;;;;9.73;8.13;;;;;;;;;;4949736;29;20186;-82
2022/01/12 13:15:02;;;;;;;11.03;8.50;;;;;;;;;;4952166;28;20292;-82
2022/01/12 13:17:27;;;;;;;13.77;12.03;;;;;;;;;;4951765;28;20264;-83
2022/01/12 13:22:28;;;;;;;15.13;8.63;;;;;;;;;;4953709;28;20221;-82
2022/01/12 13:24:54;;;;;;;12.20;8.80;;;;;;;;;;4952947;28;20177;-82
2022/01/12 13:27:20;;;;;;;18.33;8.17;;;;;;;;;;4952821;29;20232;-81
2022/01/12 13:29:46;;;;;;;11.73;7.70;;;;;;;;;;4952393;29;20188;-82
2022/01/12 13:32:13;;;;;;;10.30;8.27;;;;;;;;;;4952657;28;20181;-82
2022/01/12 13:34:42;;;;;;;11.43;7.10;;;;;;;;;;4950652;29;20210;-82
2022/01/12 13:37:11;;;;;;;12.57;8.67;;;;;;;;;;4949989;29;20259;-83
2022/01/12 13:39:37;;;;;;;13.63;9.30;;;;;;;;;;4953224;28;20185;-82
2022/01/12 13:42:03;;;;;;;12.87;10.43;;;;;;;;;;4952255;29;20212;-82
2022/01/12 13:44:28;;;;;;;12.53;8.33;;;;;;;;;;4952503;28;20186;-82
2022/01/12 13:47:06;;;;;;;12.47;9.20;;;;;;;;;;4964914;28;20181;-82
2022/01/12 13:49:31;;;;;;;13.90;9.60;;;;;;;;;;4952068;29;20224;-82
2022/01/12 13:52:00;;;;;;;10.60;8.37;;;;;;;;;;4952821;29;20181;-81
2022/01/12 13:54:44;;;;;;;11.47;8.03;;;;;;;;;;4952574;28;20189;-82
2022/01/12 13:57:11;;;;;;;10.87;8.57;;;;;;;;;;4952146;29;20188;-81
2022/01/12 13:59:50;;;;;;;10.83;8.73;;;;;;;;;;4968146;28;20266;-82
2022/01/12 14:02:17;;;;;;;9.77;8.20;;;;;;;;;;4951989;29;20200;-81
2022/01/12 14:04:46;;;;;;;10.67;8.77;;;;;;;;;;4952385;29;20209;-81
2022/01/12 14:07:22;;;;;;;11.37;8.73;;;;;;;;;;4951592;29;20206;-81
2022/01/12 14:09:54;;;;;;;12.67;8.77;;;;;;;;;;4953632;28;20181;-81
2022/01/12 14:12:19;;;;;;;11.73;8.93;;;;;;;;;;4952139;29;20181;-81
2022/01/12 14:14:46;;;;;;;11.40;7.97;;;;;;;;;;4952296;29;20181;-81
2022/01/12 14:17:21;;;;;;;11.07;8.10;;;;;;;;;;4960640;28;20201;-81
2022/01/12 14:19:54;;;;;;;11.27;8.87;;;;;;;;;;4953936;28;20227;-82
2022/01/12 14:22:19;;;;;;;10.37;8.60;;;;;;;;;;4966976;28;20235;-74
2022/01/12 14:25:00;;;;;;;12.13;9.03;;;;;;;;;;4949497;28;20272;-74
2022/01/12 14:27:38;;;;;;;12.90;9.23;;;;;;;;;;4948748;28;20173;-74
2022/01/12 14:30:07;;;;;;;10.23;8.50;;;;;;;;;;4950764;29;20177;-73
2022/01/12 14:32:36;;;;;;;10.93;7.77;;;;;;;;;;4949152;28;20189;-74
2022/01/12 14:35:02;;;;;;;13.23;9.07;;;;;;;;;;4947092;29;20296;-74
2022/01/12 14:37:27;;;;;;;13.30;9.07;;;;;;;;;;4950028;29;20294;-74
2022/01/12 14:39:52;;;;;;;11.60;9.13;;;;;;;;;;4949620;29;20228;-74
2022/01/12 14:42:17;;;;;;;13.95;8.95;;;;;;;;;;4950671;29;20232;-73
2022/01/12 14:44:42;;;;;;;12.03;10.10;;;;;;;;;;4951469;28;20244;-73
2022/01/12 14:47:07;;;;;;;9.80;8.00;;;;;;;;;;4951213;29;20205;-73
2022/01/12 14:49:33;;;;;;;9.63;8.20;;;;;;;;;;4952058;28;20222;-73
2022/01/12 14:51:58;;;;;;;12.07;8.47;;;;;;;;;;4950819;29;20196;-74
2022/01/12 14:54:23;;;;;;;8.97;7.80;;;;;;;;;;4949778;29;20181;-74
2022/01/12 14:56:48;;;;;;;12.03;10.53;;;;;;;;;;4950482;28;20181;-74
2022/01/12 14:59:13;;;;;;;9.57;7.07;;;;;;;;;;4951593;29;20192;-74
2022/01/12 15:01:41;;;;;;;12.37;8.73;;;;;;;;;;4949434;29;20263;-74
2022/01/12 15:04:06;;;;;;;10.47;7.80;;;;;;;;;;4947630;29;20184;-74
2022/01/12 15:06:31;;;;;;;10.87;8.27;;;;;;;;;;4950189;29;20177;-74
2022/01/12 15:08:56;;;;;;;11.20;8.03;;;;;;;;;;4944092;29;20185;-74
2022/01/12 15:11:21;;;;;;;16.27;9.53;;;;;;;;;;4950760;28;20173;-74
2022/01/12 15:13:59;;;;;;;11.00;8.00;;;;;;;;;;4949823;29;20186;-74
2022/01/12 15:16:24;;;;;;;12.83;8.20;;;;;;;;;;4950325;28;20269;-74
2022/01/12 15:18:49;;;;;;;12.03;9.27;;;;;;;;;;4949655;28;20186;-74
2022/01/12 15:21:16;;;;;;;11.87;8.33;;;;;;;;;;4948778;29;20173;-74
2022/01/12 15:23:41;;;;;;;10.53;9.10;;;;;;;;;;4946159;28;20240;-74
2022/01/12 15:26:07;;;;;;;12.93;9.63;;;;;;;;;;4946955;28;20178;-74
2022/01/12 15:28:32;;;;;;;11.33;8.43;;;;;;;;;;4947889;29;20240;-74
2022/01/12 15:30:57;;;;;;;12.20;8.63;;;;;;;;;;4947616;28;20361;-74
2022/01/12 15:33:22;;;;;;;13.67;8.23;;;;;;;;;;4949632;29;20276;-74
2022/01/12 15:35:47;;;;;;;9.50;7.57;;;;;;;;;;4947475;29;20182;-74
2022/01/12 15:38:13;;;;;;;11.00;9.37;;;;;;;;;;4950312;28;20193;-74
2022/01/12 15:40:40;;;;;;;11.90;8.67;;;;;;;;;;4953110;29;20331;-74
2022/01/12 15:43:05;;;;;;;14.10;9.57;;;;;;;;;;4952763;28;20205;-74
2022/01/12 15:45:32;;;;;;;12.00;9.37;;;;;;;;;;4953950;29;20181;-75
2022/01/12 15:47:57;;;;;;;13.67;8.67;;;;;;;;;;4953419;29;20220;-74